Terminal Aerodrome Forecast
Issued by NWS

Home | Current Version | Previous Version | Text Only | Print | Product List | Glossary On
Versions: 1 2 3 4 5 6 7 8 9 10 11 12 13 14 15 16 17 18 19 20 21 22 23 24 25 26 27 28 29 30 31 32
000
FTUS45 KSLC 042353 AAA
TAFLGU
TAF AMD
KLGU 042353Z 0500/0524 18012G22KT P6SM VCTS SCT090CB SCT200
     FM050300 16007KT P6SM SCT090 SCT200
     FM051600 26010G18KT P6SM SCT070 BKN100
     FM052300 36010KT P6SM SCT070 BKN100=

USA.gov is the U.S. government's official web portal to all federal, state and local government web resources and services.